Dauntless Aviation
Airports Europe United Kingdom
EGCC
MAN

Manchester Airport

Manchester, UNITED KINGDOM

Airport Info
Suggest Updated Information for this Airport

Location

Latitude / Longitude: 53°20'57"N / 2°16'46"W
  53°20.964'N / 2°16.77'W
  53.3494 / -2.2795

Nearby radio navigation aids

MCH MANCHESTER NDB on field.
MCT MANCHESTER VOR/DME on field.

Runway Information

Runway 06L/24R

Dimensions: 10000 x 151 ft.
Surface: ASP
 
Runway 06L
Runway 24R
Latitude: 53.347556 53.361319
Longitude: -2.287764 -2.259281
Elevation: 212 ft. 212 ft.
Runway true heading: 48 228
 

Runway 06R/24L

Dimensions: 9997 x 148 ft.
Surface: ASP
 
Runway 06R
Runway 24L
Latitude: 53.331972 53.348153
Longitude: -2.310661 -2.277208
Elevation: 186 ft. 186 ft.
Runway true heading: 48 228
 

Instrument Procedures

  Aerodrome Chart
  Aircraft Parking/Docking Chart
  Aerodrome Chart A380 Ground Movement
  Control Zone and Control Area Chart
  Control Zone and Control Area Chart Entry/Exit LANES and VRPS

STARs (Standard Terminal Arrivals)

  STAR via MIRSI
  STAR via ROSUN (North)
  STAR via DALEY (North) (MCT VOR U/S)
  STAR via ROSUN (East)
  STAR via DALEY (East) (MCT VOR U/S)
  STAR via DAYNE

IAPs (Instrument Approach Procedures)

  RNP Rwy 23L
  Instrument Approach Procedure Coding Tables - RNP Rwy 23L
  Aerodrome Information (Textual)
  ILS/DME (MCT) Rwy 23R
  LOC/DME Rwy 23R
  VOR/DME Rwy 23R
  VOR/DME Rwy 23L
  ILS/DME (I-MC) Rwy 05R
  ILS/DME (MCT) Rwy 05R
  LOC/DME (I-MC) Rwy 05R
  VOR/DME Rwy 05R
  ILS/DME (I-MM) Rwy 05L
  ILS/DME (MCT) Rwy 05L
  LOC/DME Rwy 05L
  VOR/DME Rwy 05L
  ILS/DME (I-NN) Rwy 23R
  ATC Surveillance Minimum Altitude Chart
  Noise PREFERENTIAL ROUTEINGS

Departure Procedures

  SID MONTY 1R 1S 1Y 1Z
  SID ASMIM 1S 1Z/KUXEM 1R 1Y/EKLAD 1R 1Y
  SID LISTO 2S 2Z
  SID (Restricted Use) LISTO 2R 2Y
  SID POL 5R 4S 1Y 1Z
  SID SONEX 1R 1Y/DESIG 1S 1Z
  SID (Jet Aircraft only) SANBA 1R 1Y
Satellite photo at:
Airport distance calculator
From:
Weather Reports

METAR

EGCC

EGCC 031150Z AUTO 27006KT 9999 SCT017 BKN026 OVC037 09/07 Q1002 NOSIG
EGGP
20.5nm SW
EGGP 031150Z 28009KT 9999 FEW020 BKN034 09/06 Q1002
EGNR
27.0nm SW
EGNR 031150Z 28005KT 240V320 9999 FEW024 BKN041 09/05 Q1003
EGOW
30.9nm W
EGOW 031150Z 29012KT 9999 FEW035 10/06 Q1002 RMK BLU
EGSY
32.2nm NE
EGSY 031150Z 30008KT 9999 SCT033 10/08 Q1004
EGNO
32.3nm NW
EGNO 031150Z 30010KT 9999 FEW019 SCT040 09/06 Q1001

TAF

EGCC
TAF EGCC 031100Z 0312/0418 24004KT 9999 SCT025 PROB40 TEMPO 0312/0320 5000 BR BKN006 TEMPO 0320/0401 4000 -RADZ SHRA BKN006 TEMPO 0401/0413 6000 SHRA RA BKN014 PROB30 TEMPO 0401/0405 1200 RADZ +SHRA BKN003 BECMG 0402/0405 27014KT TEMPO 0408/0418 28016G26KT PROB30 TEMPO 0408/0413 3000 +SHRAGS SHRASN BKN009 BKN018CB PROB30 TEMPO 0413/0418 6000 SHRA BKN014
EGGP
20.5nm SW
TAF EGGP 031100Z 0312/0412 28010KT 9999 SCT025 BECMG 0314/0317 VRB03KT PROB30 TEMPO 0314/0320 6000 PROB30 TEMPO 0320/0324 7000 SHRA BKN014 BECMG 0400/0403 26014KT TEMPO 0400/0412 6000 SHRA BKN012 PROB30 TEMPO 0400/0404 3000 +SHRA BKN009 BECMG 0403/0406 27017G27KT TEMPO 0408/0412 27028G38KT PROB30 TEMPO 0408/0412 3000 +SHRAGS BKN008
EGNR
27.0nm SW
TAF EGNR 031058Z 0312/0321 28010KT 9999 SCT025 BECMG 0315/0318 21005KT
EGOW
30.9nm W
TAF EGOW 031054Z 0312/0318 28011KT 9999 FEW018 BKN030 TEMPO 0312/0318 SCT015
EGSY
32.2nm NE
TAF EGSY 031104Z 0312/0317 27009KT 9999 FEW007 PROB30 TEMPO 0312/0317 4000 -RADZ BKN007
EGNO
32.3nm NW
TAF EGNO 031058Z 0312/0319 30010KT 9999 SCT018 BECMG 0315/0318 24008KT
Safelog

 

Dauntless Aviation

© 2007-2021 Dauntless Aviation, all rights reserved
Information provided via PilotNav comes from a variety of official and unofficial data sources. As errors are possible, do not use PilotNav for primary flight planning purposes. Verify any information that you receive via PilotNav with current and canonical charts and other official documents. The material in this database is subject to database copyrights held by Dauntless Aviation and may not be copied without the express permission of Dauntless Aviation - licenses for use of part of all of this data are available for purchase; enquire via the Dauntless Aviation helpdesk. A number of mechanisms and markers exist in the database to protect against and identify infringement / copyright. Automated queries against this website are strictly prohibited, and all activity is logged and analyzed.